메인 페이지
METAR-TAF:

METAR-TAF

공항 :

Hawkins Field

잭슨, 미시시피, 미국

위도: 32-20-05N, 경도: 090-13-21W, 고도: 104m

현재 날씨관측

예보는 18분 전, 00:53시(UTC)에 발표되었습니다.
북서3kt
온도 8°C
습도 61%
기압 1020 hPa
시정: 16.1km
맑음

METAR: KHKS 170053Z 32003KT 10SM CLR 08/01 A3012 RMK AO2 SLP196 T00830011

시각: 19:11 (01:11 UTC)

예보

예보는 1 시간 26분 전, 23:45시(UTC)에 발표되었습니다.
예보 대상 시간: 17일 00시부터 17일 24시까지 (UTC)
2kt
시정: 10km
고도 25000ft 상공 구름 조금
17일 1600시부터 (UTC)
4kt
시정: 10km
고도 25000ft 상공 구름 조금

TAF: KHKS 162345Z 1700/1724 36002KT P6SM FEW250 FM171600 27004KT P6SM FEW250

4,000개 이상의 공항 관측 자료 및 예보 (METAR 및 TAF 보고).

지도상에서 검색 가능한 기상관측소가 노란 점과 빨간 점으로 표시되어 있습니다.

기상관측소 명을 보려면 표시 위로 마우스를 이동하세요.

날씨 관측과 예보를 보려면 클릭하세요.

지도 변경 : 확대하려면 엑스 표시가 있는 녹색 버튼, 축소하려면 빼기 표시가 있는 녹색 버튼, 다음 페이지의 지도를 보려면 녹색 화살표를 클릭하세요.


METAR-TAF: